createdAt,value
2022-08-28T00:00:43.167Z,17.50
2022-08-28T00:03:12.186Z,17.50
2022-08-28T00:05:40.556Z,17.50
2022-08-28T00:08:09.644Z,17.50
2022-08-28T00:10:40.203Z,17.50
2022-08-28T00:13:09.345Z,17.50
2022-08-28T00:15:39.215Z,17.50
2022-08-28T00:18:06.919Z,17.50
2022-08-28T00:20:35.042Z,17.50
2022-08-28T00:23:02.936Z,17.50
2022-08-28T00:25:32.161Z,17.50
2022-08-28T00:28:05.283Z,17.50
2022-08-28T00:30:41.916Z,17.40
2022-08-28T00:33:13.980Z,17.40
2022-08-28T00:35:42.916Z,17.40
2022-08-28T00:38:12.243Z,17.40
2022-08-28T00:40:42.857Z,17.40
2022-08-28T00:43:21.142Z,17.50
2022-08-28T00:45:48.270Z,17.40
2022-08-28T00:48:15.300Z,17.40
2022-08-28T00:51:00.960Z,17.40
2022-08-28T00:53:32.810Z,17.40
2022-08-28T00:56:04.042Z,17.40
2022-08-28T00:58:34.557Z,17.40
2022-08-28T01:01:01.701Z,17.40
2022-08-28T01:03:28.886Z,17.40
2022-08-28T01:05:56.018Z,17.40
2022-08-28T01:08:23.113Z,17.40
2022-08-28T01:10:55.648Z,17.40
2022-08-28T01:13:26.964Z,17.40
2022-08-28T01:15:55.061Z,17.40
2022-08-28T01:18:25.261Z,17.40
2022-08-28T01:21:06.378Z,17.30
2022-08-28T01:23:55.103Z,17.40
2022-08-28T01:26:22.602Z,17.40
2022-08-28T01:28:49.724Z,17.30
2022-08-28T01:31:17.360Z,17.40
2022-08-28T01:33:46.433Z,17.40
2022-08-28T01:36:14.941Z,17.30
2022-08-28T01:38:44.014Z,17.40
2022-08-28T01:41:14.014Z,17.30
2022-08-28T01:43:41.847Z,17.30
2022-08-28T01:46:10.023Z,17.30
2022-08-28T01:48:41.779Z,17.20
2022-08-28T01:51:10.369Z,17.20
2022-08-28T01:53:38.078Z,17.20
2022-08-28T01:56:09.517Z,17.20
2022-08-28T01:58:38.462Z,17.20
2022-08-28T02:01:15.283Z,17.20
2022-08-28T02:03:45.399Z,17.20
2022-08-28T02:06:13.556Z,17.20
2022-08-28T02:08:41.070Z,17.20
2022-08-28T02:11:09.285Z,17.20
2022-08-28T02:13:38.027Z,17.20
2022-08-28T02:16:07.695Z,17.10
2022-08-28T02:18:35.417Z,17.20
2022-08-28T02:21:02.374Z,17.20
2022-08-28T02:23:29.513Z,17.10
2022-08-28T02:25:56.470Z,17.10
2022-08-28T02:28:23.502Z,17.10
2022-08-28T02:30:50.589Z,17.10
2022-08-28T02:33:17.720Z,17.10
2022-08-28T02:35:44.758Z,17.10
2022-08-28T02:38:12.320Z,17.00
2022-08-28T02:40:41.363Z,17.00
2022-08-28T02:43:08.438Z,17.00
2022-08-28T02:45:36.141Z,17.00
2022-08-28T02:48:04.751Z,17.00
2022-08-28T02:50:39.091Z,17.00
2022-08-28T02:53:06.119Z,17.00
2022-08-28T02:55:34.326Z,17.00
2022-08-28T02:58:01.380Z,17.00
2022-08-28T03:00:28.988Z,17.00
2022-08-28T03:02:56.068Z,16.90
2022-08-28T03:05:25.394Z,16.90
2022-08-28T03:07:53.529Z,16.90
2022-08-28T03:10:21.781Z,16.90
2022-08-28T03:12:49.421Z,16.90
2022-08-28T03:15:18.179Z,16.90
2022-08-28T03:17:45.236Z,16.90
2022-08-28T03:20:15.884Z,16.90
2022-08-28T03:23:01.633Z,16.90
2022-08-28T03:25:28.853Z,16.90
2022-08-28T03:27:56.612Z,16.90
2022-08-28T03:30:24.231Z,16.90
2022-08-28T03:32:51.531Z,16.90
2022-08-28T03:35:18.634Z,16.90
2022-08-28T03:37:46.017Z,16.90
2022-08-28T03:40:14.692Z,16.90
2022-08-28T03:42:41.798Z,16.90
2022-08-28T03:45:10.972Z,16.80
2022-08-28T03:47:40.405Z,16.80
2022-08-28T03:50:11.590Z,16.80
2022-08-28T03:52:40.419Z,16.80
2022-08-28T03:55:09.709Z,16.80
2022-08-28T03:57:37.029Z,16.80
2022-08-28T04:00:07.015Z,16.80
2022-08-28T04:02:34.038Z,16.80
2022-08-28T04:05:01.049Z,16.80
2022-08-28T04:07:28.059Z,16.80
2022-08-28T04:09:55.051Z,16.80
2022-08-28T04:12:22.003Z,16.80
2022-08-28T04:14:49.382Z,16.80
2022-08-28T04:17:16.615Z,16.80
2022-08-28T04:19:45.219Z,16.80
2022-08-28T04:22:12.232Z,16.80
2022-08-28T04:24:39.823Z,16.80
2022-08-28T04:27:06.851Z,16.70
2022-08-28T04:29:34.248Z,16.70
2022-08-28T04:32:02.656Z,16.70
2022-08-28T04:34:29.776Z,16.70
2022-08-28T04:36:56.806Z,16.60
2022-08-28T04:39:23.819Z,16.60
2022-08-28T04:41:50.763Z,16.60
2022-08-28T04:44:17.782Z,16.60
2022-08-28T04:46:44.804Z,16.60
2022-08-28T04:49:15.815Z,16.60
2022-08-28T04:51:42.953Z,16.60
2022-08-28T04:54:12.309Z,16.60
2022-08-28T04:56:42.243Z,16.60
2022-08-28T04:59:12.903Z,16.60
2022-08-28T05:01:43.447Z,16.50
2022-08-28T05:04:17.728Z,16.50
2022-08-28T05:06:47.956Z,16.60
2022-08-28T05:09:18.661Z,16.60
2022-08-28T05:11:47.247Z,16.60
2022-08-28T05:14:16.252Z,16.50
2022-08-28T05:16:46.709Z,16.50
2022-08-28T05:19:14.932Z,16.60
2022-08-28T05:21:42.711Z,16.50
2022-08-28T05:24:10.518Z,16.50
2022-08-28T05:26:40.012Z,16.50
2022-08-28T05:29:07.898Z,16.50
2022-08-28T05:31:35.180Z,16.40
2022-08-28T05:34:03.103Z,16.50
2022-08-28T05:36:33.200Z,16.40
2022-08-28T05:39:02.284Z,16.50
2022-08-28T05:41:31.272Z,16.40
2022-08-28T05:44:00.320Z,16.40
2022-08-28T05:46:30.774Z,16.40
2022-08-28T05:49:00.253Z,16.40
2022-08-28T05:51:28.081Z,16.40
2022-08-28T05:53:56.226Z,16.40
2022-08-28T05:56:32.815Z,16.40
2022-08-28T05:59:01.653Z,16.40
2022-08-28T06:01:31.269Z,16.40
2022-08-28T06:04:29.072Z,16.40
2022-08-28T06:06:56.200Z,16.40
2022-08-28T06:09:29.748Z,16.40
2022-08-28T06:11:59.399Z,16.50
2022-08-28T06:14:27.182Z,16.50
2022-08-28T06:16:56.214Z,16.50
2022-08-28T06:19:25.484Z,16.50
2022-08-28T06:21:57.307Z,16.50
2022-08-28T06:24:25.698Z,16.60
2022-08-28T06:26:52.768Z,16.60
2022-08-28T06:29:23.777Z,16.60
2022-08-28T06:31:58.777Z,16.70
2022-08-28T06:34:26.651Z,16.60
2022-08-28T06:36:54.521Z,16.80
2022-08-28T06:39:22.399Z,16.80
2022-08-28T06:41:49.552Z,16.90
2022-08-28T06:44:20.120Z,16.90
2022-08-28T06:46:49.291Z,17.10
2022-08-28T06:49:16.448Z,17.10
2022-08-28T06:51:43.885Z,17.20
2022-08-28T06:54:11.002Z,17.30
2022-08-28T06:56:38.645Z,17.30
2022-08-28T06:59:06.074Z,17.40
2022-08-28T07:01:36.485Z,17.40
2022-08-28T07:04:10.415Z,17.40
2022-08-28T07:06:43.258Z,17.50
2022-08-28T07:09:14.135Z,17.40
2022-08-28T07:11:44.810Z,17.50
2022-08-28T07:14:11.889Z,17.60
2022-08-28T07:16:39.814Z,17.60
2022-08-28T07:19:08.364Z,17.90
2022-08-28T07:21:42.379Z,18.00
2022-08-28T07:24:11.749Z,18.00
2022-08-28T07:26:41.217Z,18.10
2022-08-28T07:29:09.537Z,18.10
2022-08-28T07:31:49.526Z,18.20
2022-08-28T07:34:19.178Z,18.20
2022-08-28T07:36:47.150Z,18.20
2022-08-28T07:39:15.442Z,18.20
2022-08-28T07:41:43.226Z,18.30
2022-08-28T07:44:32.011Z,18.40
2022-08-28T07:47:04.295Z,18.50
2022-08-28T07:49:33.777Z,18.50
2022-08-28T07:52:01.673Z,18.40
2022-08-28T07:54:28.866Z,18.30
2022-08-28T07:56:55.854Z,18.30
2022-08-28T07:59:22.956Z,18.20
2022-08-28T08:01:51.960Z,18.30
2022-08-28T08:04:21.125Z,18.30
2022-08-28T08:06:48.660Z,18.40
2022-08-28T08:09:18.031Z,18.50
2022-08-28T08:11:46.018Z,18.50
2022-08-28T08:14:15.557Z,18.50
2022-08-28T08:16:48.208Z,18.50
2022-08-28T08:19:16.549Z,18.50
2022-08-28T08:21:45.875Z,18.40
2022-08-28T08:24:19.962Z,18.50
2022-08-28T08:26:50.096Z,18.50
2022-08-28T08:29:36.274Z,18.50
2022-08-28T08:32:07.129Z,18.50
2022-08-28T08:34:37.903Z,18.60
2022-08-28T08:37:05.949Z,18.60
2022-08-28T08:39:34.471Z,18.60
2022-08-28T08:42:05.199Z,18.70
2022-08-28T08:44:34.947Z,18.80
2022-08-28T08:47:23.619Z,18.90
2022-08-28T08:49:58.519Z,19.00
2022-08-28T08:52:40.554Z,19.20
2022-08-28T08:55:35.168Z,19.50
2022-08-28T08:58:12.763Z,19.80
2022-08-28T09:01:01.728Z,20.00
2022-08-28T09:04:11.676Z,20.20
2022-08-28T09:06:54.514Z,20.60
2022-08-28T09:09:30.509Z,20.80
2022-08-28T09:12:06.153Z,21.10
2022-08-28T09:14:57.989Z,21.30
2022-08-28T09:17:46.517Z,21.70
2022-08-28T09:20:16.987Z,22.10
2022-08-28T09:22:49.284Z,22.40
2022-08-28T09:25:51.425Z,22.70
2022-08-28T09:28:23.234Z,23.30
2022-08-28T09:31:01.056Z,23.40
2022-08-28T09:33:32.892Z,23.60
2022-08-28T09:36:26.066Z,24.00
2022-08-28T09:39:05.260Z,24.90
2022-08-28T09:41:51.818Z,25.40
2022-08-28T09:44:19.003Z,25.20
2022-08-28T09:46:52.294Z,25.30
2022-08-28T09:49:30.179Z,25.90
2022-08-28T09:51:59.750Z,26.50
2022-08-28T09:54:40.089Z,26.40
2022-08-28T09:57:08.105Z,26.50
2022-08-28T09:59:35.101Z,26.20
2022-08-28T10:02:28.135Z,25.70
2022-08-28T10:05:08.537Z,25.50
2022-08-28T10:07:46.518Z,24.90
2022-08-28T10:10:35.334Z,24.40
2022-08-28T10:13:24.036Z,24.00
2022-08-28T10:16:28.919Z,24.00
2022-08-28T10:19:01.897Z,24.20
2022-08-28T10:22:00.305Z,24.70
2022-08-28T10:24:34.546Z,25.30
2022-08-28T10:27:23.831Z,25.90
2022-08-28T10:30:12.395Z,26.80
2022-08-28T10:33:17.796Z,27.70
2022-08-28T10:36:03.638Z,27.60
2022-08-28T10:38:43.425Z,26.70
2022-08-28T10:41:22.414Z,26.60
2022-08-28T10:43:54.241Z,27.20
2022-08-28T10:46:35.147Z,27.80
2022-08-28T10:49:07.130Z,28.50
2022-08-28T10:51:47.017Z,28.40
2022-08-28T10:54:39.133Z,28.50
2022-08-28T10:57:21.170Z,28.20
2022-08-28T10:59:52.368Z,27.50
2022-08-28T11:02:22.893Z,27.00
2022-08-28T11:04:53.286Z,26.90
2022-08-28T11:07:36.255Z,27.40
2022-08-28T11:10:23.767Z,27.60
2022-08-28T11:12:52.860Z,28.10
2022-08-28T11:15:42.337Z,28.30
2022-08-28T11:18:15.904Z,27.80
2022-08-28T11:20:57.608Z,27.20
2022-08-28T11:23:49.742Z,26.90
2022-08-28T11:26:34.062Z,26.50
2022-08-28T11:29:02.595Z,26.30
2022-08-28T11:31:33.605Z,26.30
2022-08-28T11:34:02.634Z,26.40
2022-08-28T11:36:30.111Z,26.20
2022-08-28T11:39:04.106Z,26.00
2022-08-28T11:41:38.569Z,26.30
2022-08-28T11:44:11.304Z,26.40
2022-08-28T11:46:49.706Z,26.10
2022-08-28T11:49:35.092Z,25.60
2022-08-28T11:52:33.033Z,25.50
2022-08-28T11:55:20.096Z,25.50
2022-08-28T12:00:57.898Z,25.80
2022-08-28T12:03:28.605Z,25.80
2022-08-28T12:05:58.163Z,25.70
2022-08-28T12:08:57.880Z,25.60
2022-08-28T12:11:47.965Z,25.70
2022-08-28T12:14:27.263Z,25.80
2022-08-28T12:17:03.623Z,25.80
2022-08-28T12:19:41.312Z,26.10
2022-08-28T12:22:20.377Z,26.30
2022-08-28T12:25:02.293Z,26.30
2022-08-28T12:27:31.979Z,26.30
2022-08-28T12:30:02.110Z,26.60
2022-08-28T12:32:56.175Z,27.00
2022-08-28T12:35:28.030Z,27.40
2022-08-28T12:37:57.453Z,27.50
2022-08-28T12:40:27.356Z,27.40
2022-08-28T12:43:06.776Z,27.60
2022-08-28T12:45:51.743Z,27.60
2022-08-28T12:48:31.753Z,27.60
2022-08-28T12:51:08.146Z,27.40
2022-08-28T12:53:44.198Z,27.10
2022-08-28T12:56:13.198Z,27.10
2022-08-28T12:58:42.374Z,27.20
2022-08-28T13:01:21.820Z,27.30
2022-08-28T13:03:57.134Z,27.20
2022-08-28T13:06:28.942Z,26.90
2022-08-28T13:09:03.383Z,26.60
2022-08-28T13:11:36.915Z,26.50
2022-08-28T13:14:05.598Z,26.20
2022-08-28T13:16:45.619Z,26.00
2022-08-28T13:19:28.472Z,25.80
2022-08-28T13:22:20.850Z,25.70
2022-08-28T13:24:48.431Z,25.60
2022-08-28T13:27:18.122Z,25.50
2022-08-28T13:30:12.842Z,25.60
2022-08-28T13:32:40.732Z,25.70
2022-08-28T13:35:10.806Z,26.00
2022-08-28T13:37:59.902Z,26.20
2022-08-28T13:43:23.049Z,26.90
2022-08-28T13:45:50.822Z,27.60
2022-08-28T13:48:23.389Z,28.20
2022-08-28T13:50:57.983Z,28.10
2022-08-28T13:53:25.486Z,27.80
2022-08-28T13:55:52.487Z,27.40
2022-08-28T13:58:19.822Z,27.30
2022-08-28T14:00:50.925Z,27.20
2022-08-28T14:03:38.652Z,27.10
2022-08-28T14:06:11.855Z,27.00
2022-08-28T14:08:40.758Z,27.10
2022-08-28T14:11:08.251Z,27.00
2022-08-28T14:13:40.465Z,26.50
2022-08-28T14:16:16.888Z,26.00
2022-08-28T14:18:44.002Z,25.60
2022-08-28T14:21:10.961Z,25.30
2022-08-28T14:23:38.183Z,25.10
2022-08-28T14:26:06.023Z,25.10
2022-08-28T14:28:33.149Z,25.20
2022-08-28T14:31:00.182Z,25.30
2022-08-28T14:33:27.179Z,25.50
2022-08-28T14:35:54.862Z,25.70
2022-08-28T14:38:21.897Z,26.10
2022-08-28T14:40:49.561Z,26.30
2022-08-28T14:43:16.671Z,26.80
2022-08-28T14:45:49.952Z,27.60
2022-08-28T14:48:19.068Z,28.00
2022-08-28T14:50:48.357Z,28.30
2022-08-28T14:53:17.090Z,28.30
2022-08-28T14:55:49.338Z,28.00
2022-08-28T14:58:18.306Z,27.50
2022-08-28T15:00:50.786Z,27.00
2022-08-28T15:03:18.754Z,26.90
2022-08-28T15:05:46.417Z,27.00
2022-08-28T15:08:15.956Z,27.20
2022-08-28T15:10:43.833Z,27.40
2022-08-28T15:13:11.308Z,27.40
2022-08-28T15:15:39.727Z,27.40
2022-08-28T15:18:08.102Z,27.30
2022-08-28T15:20:44.505Z,27.40
2022-08-28T15:23:14.069Z,27.50
2022-08-28T15:25:41.192Z,27.50
2022-08-28T15:28:08.490Z,27.40
2022-08-28T15:30:35.822Z,27.00
2022-08-28T15:33:03.234Z,26.30
2022-08-28T15:35:30.493Z,26.10
2022-08-28T15:37:57.521Z,26.10
2022-08-28T15:40:43.287Z,26.30
2022-08-28T15:43:10.493Z,26.50
2022-08-28T15:45:39.293Z,26.50
2022-08-28T15:48:07.684Z,26.80
2022-08-28T15:50:35.003Z,27.00
2022-08-28T15:53:02.665Z,27.20
2022-08-28T15:55:30.348Z,27.20
2022-08-28T15:57:57.786Z,27.10
2022-08-28T16:00:24.811Z,27.10
2022-08-28T16:02:51.851Z,27.00
2022-08-28T16:05:18.955Z,26.80
2022-08-28T16:07:46.698Z,26.10
2022-08-28T16:10:13.890Z,25.60
2022-08-28T16:12:42.263Z,25.10
2022-08-28T16:15:10.554Z,24.90
2022-08-28T16:17:37.513Z,24.90
2022-08-28T16:20:12.850Z,24.90
2022-08-28T16:22:40.901Z,25.10
2022-08-28T16:25:09.835Z,25.40
2022-08-28T16:27:36.814Z,25.50
2022-08-28T16:30:05.581Z,25.30
2022-08-28T16:32:33.005Z,25.10
2022-08-28T16:35:02.838Z,25.30
2022-08-28T16:37:39.816Z,25.40
2022-08-28T16:40:09.152Z,25.60
2022-08-28T16:42:39.852Z,25.60
2022-08-28T16:45:07.982Z,25.60
2022-08-28T16:47:36.666Z,25.60
2022-08-28T16:50:08.046Z,25.30
2022-08-28T16:52:36.011Z,25.00
2022-08-28T16:55:04.686Z,24.60
2022-08-28T16:57:31.963Z,24.20
2022-08-28T16:59:59.034Z,23.70
2022-08-28T17:02:26.811Z,23.20
2022-08-28T17:04:55.405Z,22.80
2022-08-28T17:07:22.996Z,22.40
2022-08-28T17:09:49.963Z,22.10
2022-08-28T17:12:17.239Z,21.80
2022-08-28T17:14:44.954Z,21.60
2022-08-28T17:17:12.160Z,21.50
2022-08-28T17:19:39.754Z,21.30
2022-08-28T17:22:27.443Z,21.20
2022-08-28T17:24:55.280Z,21.10
2022-08-28T17:27:23.423Z,21.00
2022-08-28T17:29:50.723Z,20.90
2022-08-28T17:32:17.724Z,20.80
2022-08-28T17:34:45.177Z,20.70
2022-08-28T17:37:13.205Z,20.60
2022-08-28T17:39:40.208Z,20.50
2022-08-28T17:42:07.283Z,20.30
2022-08-28T17:44:35.740Z,20.20
2022-08-28T17:47:03.083Z,20.10
2022-08-28T17:49:30.348Z,19.90
2022-08-28T17:51:57.342Z,19.80
2022-08-28T17:54:24.857Z,19.70
2022-08-28T17:56:53.168Z,19.60
2022-08-28T17:59:20.681Z,19.50
2022-08-28T18:01:48.554Z,19.40
2022-08-28T18:04:21.633Z,19.30
2022-08-28T18:06:52.801Z,19.20
2022-08-28T18:09:21.479Z,19.10
2022-08-28T18:11:49.252Z,18.90
2022-08-28T18:14:16.302Z,18.80
2022-08-28T18:16:43.491Z,18.60
2022-08-28T18:19:12.083Z,18.50
2022-08-28T18:21:39.410Z,18.30
2022-08-28T18:24:07.266Z,18.20
2022-08-28T18:26:34.398Z,18.00
2022-08-28T18:29:01.450Z,17.80
2022-08-28T18:31:28.760Z,17.70
2022-08-28T18:33:55.897Z,17.70
2022-08-28T18:36:23.369Z,17.60
2022-08-28T18:38:51.496Z,17.50
2022-08-28T18:41:22.026Z,17.30
2022-08-28T18:43:57.776Z,17.20
2022-08-28T18:46:31.180Z,17.10
2022-08-28T18:48:59.252Z,17.10
2022-08-28T18:51:26.394Z,17.00
2022-08-28T18:53:53.388Z,16.80
2022-08-28T18:56:20.565Z,16.70
2022-08-28T18:58:48.058Z,16.60
2022-08-28T19:01:16.011Z,16.50
2022-08-28T19:03:43.138Z,16.40
2022-08-28T19:06:13.754Z,16.40
2022-08-28T19:08:41.319Z,16.30
2022-08-28T19:11:13.060Z,16.20
2022-08-28T19:13:41.817Z,16.20
2022-08-28T19:16:09.304Z,16.10
2022-08-28T19:18:36.883Z,16.00
2022-08-28T19:21:30.410Z,16.00
2022-08-28T19:23:57.749Z,15.90
2022-08-28T19:26:25.714Z,15.90
2022-08-28T19:28:53.319Z,15.90
2022-08-28T19:31:20.877Z,15.90
2022-08-28T19:33:48.324Z,15.90
2022-08-28T19:36:15.835Z,15.90
2022-08-28T19:38:43.402Z,15.80
2022-08-28T19:41:11.710Z,15.80
2022-08-28T19:43:42.588Z,15.80
2022-08-28T19:46:19.632Z,15.80
2022-08-28T19:48:52.131Z,15.80
2022-08-28T19:51:22.689Z,15.80
2022-08-28T19:53:57.350Z,15.70
2022-08-28T19:56:33.687Z,15.60
2022-08-28T19:59:02.843Z,15.60
2022-08-28T20:01:33.054Z,15.60
2022-08-28T20:04:00.911Z,15.50
2022-08-28T20:06:31.158Z,15.50
2022-08-28T20:08:58.645Z,15.50
2022-08-28T20:11:30.463Z,15.50
2022-08-28T20:14:04.249Z,15.50
2022-08-28T20:16:34.975Z,15.40
2022-08-28T20:19:03.087Z,15.40
2022-08-28T20:21:38.004Z,15.40
2022-08-28T20:24:17.689Z,15.30
2022-08-28T20:26:44.874Z,15.30
2022-08-28T20:29:13.050Z,15.20
2022-08-28T20:31:43.751Z,15.20
2022-08-28T20:34:12.410Z,15.20
2022-08-28T20:36:39.674Z,15.20
2022-08-28T20:39:09.333Z,15.10
2022-08-28T20:41:38.639Z,15.10
2022-08-28T20:44:07.805Z,15.00
2022-08-28T20:46:40.083Z,15.00
2022-08-28T20:49:10.817Z,14.90
2022-08-28T20:51:53.935Z,14.90
2022-08-28T20:54:23.882Z,14.90
2022-08-28T20:56:52.270Z,14.90
2022-08-28T20:59:20.714Z,14.80
2022-08-28T21:01:50.637Z,14.80
2022-08-28T21:04:18.454Z,14.80
2022-08-28T21:06:46.760Z,14.80
2022-08-28T21:09:15.138Z,14.80
2022-08-28T21:11:43.277Z,14.80
2022-08-28T21:14:10.932Z,14.80
2022-08-28T21:16:39.597Z,14.80
2022-08-28T21:19:15.679Z,14.80
2022-08-28T21:21:44.598Z,14.80
2022-08-28T21:24:13.650Z,14.80
2022-08-28T21:26:45.901Z,14.80
2022-08-28T21:29:14.754Z,14.70
2022-08-28T21:31:44.049Z,14.70
2022-08-28T21:34:11.867Z,14.70
2022-08-28T21:36:48.141Z,14.60
2022-08-28T21:39:20.480Z,14.60
2022-08-28T21:41:48.763Z,14.60
2022-08-28T21:44:15.998Z,14.60
2022-08-28T21:46:43.076Z,14.50
2022-08-28T21:49:10.401Z,14.50
2022-08-28T21:51:37.439Z,14.50
2022-08-28T21:54:04.510Z,14.40
2022-08-28T21:56:32.321Z,14.40
2022-08-28T21:58:59.591Z,14.30
2022-08-28T22:01:26.898Z,14.30
2022-08-28T22:03:55.654Z,14.30
2022-08-28T22:06:24.080Z,14.30
2022-08-28T22:08:52.010Z,14.20
2022-08-28T22:11:24.501Z,14.20
2022-08-28T22:13:52.958Z,14.20
2022-08-28T22:16:20.946Z,14.20
2022-08-28T22:18:48.027Z,14.20
2022-08-28T22:21:36.574Z,14.10
2022-08-28T22:24:04.609Z,14.10
2022-08-28T22:26:31.713Z,14.10
2022-08-28T22:28:59.001Z,14.10
2022-08-28T22:31:26.968Z,14.10
2022-08-28T22:33:54.166Z,14.10
2022-08-28T22:36:21.877Z,14.00
2022-08-28T22:38:53.002Z,14.00
2022-08-28T22:41:20.925Z,14.00
2022-08-28T22:43:52.202Z,13.90
2022-08-28T22:46:20.792Z,13.90
2022-08-28T22:48:48.057Z,13.90
2022-08-28T22:51:18.553Z,13.90
2022-08-28T22:53:46.866Z,13.90
2022-08-28T22:56:14.703Z,13.90
2022-08-28T22:58:41.741Z,13.90
2022-08-28T23:01:14.152Z,13.80
2022-08-28T23:03:41.599Z,13.90
2022-08-28T23:06:08.637Z,13.80
2022-08-28T23:08:35.890Z,13.80
2022-08-28T23:11:03.262Z,13.80
2022-08-28T23:13:31.362Z,13.80
2022-08-28T23:15:58.609Z,13.70
2022-08-28T23:18:25.652Z,13.70
2022-08-28T23:20:55.379Z,13.70
2022-08-28T23:23:23.880Z,13.60
2022-08-28T23:25:51.448Z,13.60
2022-08-28T23:28:19.466Z,13.60
2022-08-28T23:30:48.585Z,13.60
2022-08-28T23:33:23.803Z,13.60
2022-08-28T23:35:51.857Z,13.50
2022-08-28T23:38:19.408Z,13.50
2022-08-28T23:40:48.302Z,13.50
2022-08-28T23:43:18.393Z,13.50
2022-08-28T23:45:45.425Z,13.50
2022-08-28T23:48:15.513Z,13.50
2022-08-28T23:50:43.488Z,13.50
2022-08-28T23:53:10.992Z,13.40
2022-08-28T23:55:38.646Z,13.40
2022-08-28T23:58:06.179Z,13.40
